Dallas, Texas
Traffic Map
Current Weather Conditions
Dallas, Texas
Overcast Light Rain
Overcast
67°
Feels Like: 67°
Wind Chill: 67° Ceiling: 5500
Heat Index: 67° Visibility: 10mi
Dew Point: 53° Wind: 8mph
Humidity: 61% Direction: 130° (SE)
Pressure: 30.12in Gusts: 0mph
Raw Report DataKDAL 230753Z 13007KT 10SM -RA BKN055 BKN120 OVC160 19/12 A3012 RMK AO2 RAB26 SLP193 P0000 T01940117
Traffic Incident Summary
Active as of:
Severity:
Category:
InformationThere was an issue retrieving the traffic information for this location. Please try a different location or try again shortly.
Advertisements
Track Severe Weather on mobile